Ginys del Meteocat
Campanya meteocatpedra

Dades de l'estació automàtica Castellnou de Seana

?
?
Resum diari 23:00 TU
Dades diàries de l'estació meteorològica
Temperatura mitjana 11.6 °C
Temperatura màxima 16.7 °C 15:05 TU
Temperatura mínima 8.1 °C 4:39 TU
Humitat relativa mitjana 87%
Precipitació acumulada 0.1 mm
Ratxa màxima del vent (10 m) 13.0 km/h - 239º 1:22 TU
Pressió atmosfèrica mitjana 1018.5 hPa
Irradiació solar global 9.1 MJ/m2

El tram horari està expressat en Temps Universal (TU). Cal sumar una hora en horari d'hivern i dues en horari d'estiu per passar a l'hora oficial.

Castellnou de Seana

Metadades estació meteorol´gica
Municipi Castellnou de Seana
Comarca Pla d'Urgell
Altitud 264 m
Data alta 16.12.1995
Estat actual Operativa
Dades de període
Període
TU
TM
°C
TX
°C
TN
°C
HRM
%
PPT
mm
VVM (10 m)
km/h
DVM (10 m)
graus
VVX (10 m)
km/h
PM
hPa
RS
W/m2
00:00 - 00:30 10.2 10.3 9.9 92 0.0 7.9 198 11.2 1016.0 0
00:30 - 01:00 9.3 9.8 8.9 93 0.0 5.4 197 9.0 1016.3 0
01:00 - 01:30 9.0 9.4 8.8 95 0.0 9.0 230 13.0 1016.3 0
01:30 - 02:00 9.1 9.4 8.6 96 0.0 6.1 229 9.4 1016.4 0
02:00 - 02:30 8.5 8.6 8.4 96 0.0 5.8 212 7.9 1016.7 0
02:30 - 03:00 8.3 8.4 8.2 97 0.0 6.5 218 8.3 1016.8 0
03:00 - 03:30 8.4 8.5 8.2 97 0.0 6.1 212 9.0 1016.8 0
03:30 - 04:00 8.2 8.3 8.1 97 0.0 5.8 201 9.0 1017.0 0
04:00 - 04:30 8.3 8.4 8.3 97 0.0 6.1 197 9.0 1017.3 0
04:30 - 05:00 8.2 8.4 8.1 97 0.0 7.9 229 12.2 1017.5 0
05:00 - 05:30 8.6 8.8 8.5 98 0.0 7.9 247 12.6 1017.7 0
05:30 - 06:00 8.6 8.8 8.5 97 0.0 4.3 258 7.9 1017.9 0
06:00 - 06:30 8.6 8.9 8.4 97 0.0 1.8 260 4.7 1018.0 1
06:30 - 07:00 9.1 9.4 8.9 98 0.0 2.2 271 5.0 1018.2 14
07:00 - 07:30 9.6 9.8 9.4 97 0.0 4.3 240 8.3 1018.6 42
07:30 - 08:00 10.0 10.2 9.8 95 0.0 5.4 230 9.0 1018.9 40
08:00 - 08:30 10.3 10.5 10.1 93 0.0 6.1 249 9.0 1019.3 70
08:30 - 09:00 10.7 10.9 10.5 91 0.0 4.3 256 7.6 1019.4 94
09:00 - 09:30 11.0 11.2 10.8 90 0.0 2.9 258 6.5 1019.8 81
09:30 - 10:00 11.2 11.3 11.1 89 0.0 4.0 289 7.2 1020.1 88
10:00 - 10:30 11.5 11.8 11.2 88 0.0 5.0 292 8.3 1020.0 147
10:30 - 11:00 12.1 12.6 11.7 84 0.0 3.6 290 8.3 1020.0 244
11:00 - 11:30 12.6 13.2 12.2 81 0.0 3.2 287 8.6 1019.9 291
11:30 - 12:00 13.7 14.9 13.0 76 0.0 2.2 250 6.1 1019.5 539
12:00 - 12:30 14.0 14.7 13.3 77 0.0 4.7 47 10.4 1019.0 551
12:30 - 13:00 14.1 14.9 13.4 76 0.0 4.7 37 10.8 1019.0 541
13:00 - 13:30 14.4 14.7 14.1 75 0.0 4.3 28 12.6 1018.7 467
13:30 - 14:00 14.8 15.2 14.3 73 0.0 3.6 52 8.3 1018.8 494
14:00 - 14:30 15.2 16.3 15.0 70 0.0 2.9 37 7.6 1018.4 424
14:30 - 15:00 15.8 16.3 15.4 67 0.0 2.2 104 6.8 1018.2 321
15:00 - 15:30 16.1 16.7 15.7 65 0.0 2.2 33 6.8 1017.9 281
15:30 - 16:00 15.6 15.8 15.3 68 0.0 4.0 16 7.2 1018.0 196
16:00 - 16:30 15.5 15.8 15.4 70 0.0 3.6 55 7.6 1018.1 128
16:30 - 17:00 15.1 15.3 14.7 71 0.0 3.2 29 6.5 1018.2 46
17:00 - 17:30 14.3 14.6 14.0 75 0.0 2.9 5 4.7 1018.4 2
17:30 - 18:00 13.7 14.0 13.5 78 0.0 2.5 37 3.6 1018.7 0
18:00 - 18:30 13.4 13.5 13.1 83 0.0 2.9 72 7.2 1018.9 0
18:30 - 19:00 13.3 13.4 13.1 84 0.1 4.3 38 8.3 1019.0 0
19:00 - 19:30 12.9 13.2 12.8 85 0.0 3.6 37 5.8 1019.2 0
19:30 - 20:00 12.3 12.9 11.9 87 0.0 1.1 42 4.0 1019.6 0
20:00 - 20:30 12.0 12.1 11.6 90 0.0 2.5 38 4.7 1019.4 0
20:30 - 21:00 11.4 11.6 11.1 93 0.0 2.5 59 5.4 1019.5 0
21:00 - 21:30 11.6 11.7 11.4 93 0.0 5.8 89 10.1 1019.3 0
21:30 - 22:00 11.8 12.0 11.3 92 0.0 8.3 103 10.1 1019.4 0
22:00 - 22:30 11.6 11.8 11.3 94 0.0 9.0 96 11.5 1019.6 0
22:30 - 23:00 11.3 11.5 11.1 94 0.0 6.5 96 10.1 1019.9 0
23:00 - 23:30 11.0 11.2 10.6 95 0.0 4.7 58 6.5 1019.6 0

Les dades en taronja només han passat un control de qualitat automàtic. Resta pendent la seva validació definitiva.